sensor_id;sensor_type;location;lat;lon;timestamp;P1;durP1;ratioP1;P2;durP2;ratioP2
45714;SDS011;31430;61.646;24.704;2022-08-04T00:02:26;4.18;;;3.88;;
45714;SDS011;31430;61.646;24.704;2022-08-04T00:05:06;4.00;;;3.70;;
45714;SDS011;31430;61.646;24.704;2022-08-04T00:10:20;4.07;;;3.78;;
45714;SDS011;31430;61.646;24.704;2022-08-04T00:12:48;3.83;;;3.53;;
45714;SDS011;31430;61.646;24.704;2022-08-04T00:15:16;3.97;;;3.67;;
45714;SDS011;31430;61.646;24.704;2022-08-04T00:20:41;3.95;;;3.65;;
45714;SDS011;31430;61.646;24.704;2022-08-04T00:25:33;4.57;;;4.28;;
45714;SDS011;31430;61.646;24.704;2022-08-04T00:28:03;4.10;;;3.80;;
45714;SDS011;31430;61.646;24.704;2022-08-04T00:30:29;4.00;;;3.70;;
45714;SDS011;31430;61.646;24.704;2022-08-04T00:32:55;4.10;;;3.80;;
45714;SDS011;31430;61.646;24.704;2022-08-04T00:35:22;3.85;;;3.55;;
45714;SDS011;31430;61.646;24.704;2022-08-04T00:51:58;4.25;;;3.95;;
45714;SDS011;31430;61.646;24.704;2022-08-04T00:54:56;4.57;;;4.28;;
45714;SDS011;31430;61.646;24.704;2022-08-04T01:06:17;4.13;;;3.83;;
45714;SDS011;31430;61.646;24.704;2022-08-04T01:13:59;3.92;;;3.63;;
45714;SDS011;31430;61.646;24.704;2022-08-04T01:17:04;4.45;;;4.15;;
45714;SDS011;31430;61.646;24.704;2022-08-04T01:27:41;3.97;;;3.67;;
45714;SDS011;31430;61.646;24.704;2022-08-04T01:30:15;4.38;;;4.07;;
45714;SDS011;31430;61.646;24.704;2022-08-04T01:32:51;3.97;;;3.67;;
45714;SDS011;31430;61.646;24.704;2022-08-04T01:35:23;3.95;;;3.65;;
45714;SDS011;31430;61.646;24.704;2022-08-04T01:38:16;3.95;;;3.65;;
45714;SDS011;31430;61.646;24.704;2022-08-04T01:40:45;4.10;;;3.80;;
45714;SDS011;31430;61.646;24.704;2022-08-04T01:43:14;4.38;;;4.07;;
45714;SDS011;31430;61.646;24.704;2022-08-04T01:45:41;3.88;;;3.58;;
45714;SDS011;31430;61.646;24.704;2022-08-04T01:48:09;4.22;;;3.92;;
45714;SDS011;31430;61.646;24.704;2022-08-04T01:50:36;4.22;;;3.92;;
45714;SDS011;31430;61.646;24.704;2022-08-04T01:53:03;3.88;;;3.58;;
45714;SDS011;31430;61.646;24.704;2022-08-04T01:55:29;3.88;;;3.58;;
45714;SDS011;31430;61.646;24.704;2022-08-04T01:57:55;3.83;;;3.53;;
45714;SDS011;31430;61.646;24.704;2022-08-04T02:00:25;4.10;;;3.80;;
45714;SDS011;31430;61.646;24.704;2022-08-04T02:02:52;3.67;;;3.38;;
45714;SDS011;31430;61.646;24.704;2022-08-04T02:05:20;3.80;;;3.50;;
45714;SDS011;31430;61.646;24.704;2022-08-04T02:07:57;3.83;;;3.53;;
45714;SDS011;31430;61.646;24.704;2022-08-04T02:10:51;4.18;;;3.88;;
45714;SDS011;31430;61.646;24.704;2022-08-04T02:14:05;4.03;;;3.72;;
45714;SDS011;31430;61.646;24.704;2022-08-04T02:21:36;3.72;;;3.42;;
45714;SDS011;31430;61.646;24.704;2022-08-04T02:24:05;4.13;;;3.83;;
45714;SDS011;31430;61.646;24.704;2022-08-04T02:26:34;3.83;;;3.53;;
45714;SDS011;31430;61.646;24.704;2022-08-04T02:31:38;3.97;;;3.67;;
45714;SDS011;31430;61.646;24.704;2022-08-04T02:34:27;3.92;;;3.63;;
45714;SDS011;31430;61.646;24.704;2022-08-04T02:36:58;3.90;;;3.60;;
45714;SDS011;31430;61.646;24.704;2022-08-04T02:39:25;3.78;;;3.47;;
45714;SDS011;31430;61.646;24.704;2022-08-04T02:41:58;4.03;;;3.72;;
45714;SDS011;31430;61.646;24.704;2022-08-04T02:44:27;3.72;;;3.42;;
45714;SDS011;31430;61.646;24.704;2022-08-04T02:46:54;3.85;;;3.55;;
45714;SDS011;31430;61.646;24.704;2022-08-04T02:49:21;3.90;;;3.60;;
45714;SDS011;31430;61.646;24.704;2022-08-04T02:51:54;3.83;;;3.53;;
45714;SDS011;31430;61.646;24.704;2022-08-04T02:54:25;3.78;;;3.47;;
45714;SDS011;31430;61.646;24.704;2022-08-04T02:56:53;4.22;;;3.92;;
45714;SDS011;31430;61.646;24.704;2022-08-04T02:59:22;3.75;;;3.45;;
45714;SDS011;31430;61.646;24.704;2022-08-04T03:01:55;3.88;;;3.58;;
45714;SDS011;31430;61.646;24.704;2022-08-04T03:15:38;3.80;;;3.50;;
45714;SDS011;31430;61.646;24.704;2022-08-04T04:00:09;3.97;;;3.67;;
45714;SDS011;31430;61.646;24.704;2022-08-04T04:10:40;4.15;;;3.85;;
45714;SDS011;31430;61.646;24.704;2022-08-04T04:13:27;3.85;;;3.55;;
45714;SDS011;31430;61.646;24.704;2022-08-04T04:35:08;3.78;;;3.47;;
45714;SDS011;31430;61.646;24.704;2022-08-04T04:54:38;4.18;;;3.88;;
45714;SDS011;31430;61.646;24.704;2022-08-04T04:57:19;3.80;;;3.50;;
45714;SDS011;31430;61.646;24.704;2022-08-04T05:21:52;3.85;;;3.55;;
45714;SDS011;31430;61.646;24.704;2022-08-04T05:24:21;3.83;;;3.53;;
45714;SDS011;31430;61.646;24.704;2022-08-04T05:26:51;3.72;;;3.42;;
45714;SDS011;31430;61.646;24.704;2022-08-04T05:29:40;3.83;;;3.53;;
45714;SDS011;31430;61.646;24.704;2022-08-04T05:32:13;3.83;;;3.53;;
45714;SDS011;31430;61.646;24.704;2022-08-04T05:34:48;3.85;;;3.55;;
45714;SDS011;31430;61.646;24.704;2022-08-04T05:37:19;3.80;;;3.50;;
45714;SDS011;31430;61.646;24.704;2022-08-04T05:39:55;3.85;;;3.55;;
45714;SDS011;31430;61.646;24.704;2022-08-04T05:42:24;3.75;;;3.45;;
45714;SDS011;31430;61.646;24.704;2022-08-04T05:44:51;3.97;;;3.67;;
45714;SDS011;31430;61.646;24.704;2022-08-04T05:47:18;3.65;;;3.35;;
45714;SDS011;31430;61.646;24.704;2022-08-04T05:49:46;3.75;;;3.45;;
45714;SDS011;31430;61.646;24.704;2022-08-04T05:52:12;3.63;;;3.33;;
45714;SDS011;31430;61.646;24.704;2022-08-04T05:54:39;3.65;;;3.35;;
45714;SDS011;31430;61.646;24.704;2022-08-04T05:57:06;3.90;;;3.60;;
45714;SDS011;31430;61.646;24.704;2022-08-04T05:59:35;4.03;;;3.72;;
45714;SDS011;31430;61.646;24.704;2022-08-04T06:02:03;3.70;;;3.40;;
45714;SDS011;31430;61.646;24.704;2022-08-04T06:04:39;3.63;;;3.33;;
45714;SDS011;31430;61.646;24.704;2022-08-04T06:07:06;3.72;;;3.42;;
45714;SDS011;31430;61.646;24.704;2022-08-04T06:09:33;3.65;;;3.35;;
45714;SDS011;31430;61.646;24.704;2022-08-04T06:11:59;3.67;;;3.38;;
45714;SDS011;31430;61.646;24.704;2022-08-04T06:14:27;3.78;;;3.47;;
45714;SDS011;31430;61.646;24.704;2022-08-04T06:17:02;3.58;;;3.28;;
45714;SDS011;31430;61.646;24.704;2022-08-04T06:19:30;3.55;;;3.25;;
45714;SDS011;31430;61.646;24.704;2022-08-04T06:21:59;3.58;;;3.28;;
45714;SDS011;31430;61.646;24.704;2022-08-04T06:24:28;3.58;;;3.28;;
45714;SDS011;31430;61.646;24.704;2022-08-04T06:26:56;3.58;;;3.28;;
45714;SDS011;31430;61.646;24.704;2022-08-04T06:29:22;3.53;;;3.22;;
45714;SDS011;31430;61.646;24.704;2022-08-04T06:32:04;3.33;;;3.10;;
45714;SDS011;31430;61.646;24.704;2022-08-04T06:34:53;3.45;;;3.15;;
45714;SDS011;31430;61.646;24.704;2022-08-04T06:37:22;3.65;;;3.35;;
45714;SDS011;31430;61.646;24.704;2022-08-04T06:39:49;3.30;;;3.08;;
45714;SDS011;31430;61.646;24.704;2022-08-04T06:42:16;3.45;;;3.15;;
45714;SDS011;31430;61.646;24.704;2022-08-04T06:44:48;3.53;;;3.22;;
45714;SDS011;31430;61.646;24.704;2022-08-04T06:47:16;3.55;;;3.25;;
45714;SDS011;31430;61.646;24.704;2022-08-04T06:49:44;3.63;;;3.33;;
45714;SDS011;31430;61.646;24.704;2022-08-04T06:52:12;3.63;;;3.33;;
45714;SDS011;31430;61.646;24.704;2022-08-04T06:54:42;3.47;;;3.17;;
45714;SDS011;31430;61.646;24.704;2022-08-04T06:57:10;3.42;;;3.13;;
45714;SDS011;31430;61.646;24.704;2022-08-04T06:59:39;3.50;;;3.20;;
45714;SDS011;31430;61.646;24.704;2022-08-04T07:02:13;3.47;;;3.17;;
45714;SDS011;31430;61.646;24.704;2022-08-04T07:04:43;3.47;;;3.17;;
45714;SDS011;31430;61.646;24.704;2022-08-04T07:07:10;3.25;;;3.05;;
45714;SDS011;31430;61.646;24.704;2022-08-04T07:09:37;3.42;;;3.13;;
45714;SDS011;31430;61.646;24.704;2022-08-04T07:12:04;3.45;;;3.15;;
45714;SDS011;31430;61.646;24.704;2022-08-04T07:14:31;3.53;;;3.22;;
45714;SDS011;31430;61.646;24.704;2022-08-04T07:17:00;3.20;;;3.00;;
45714;SDS011;31430;61.646;24.704;2022-08-04T07:19:29;3.28;;;3.08;;
45714;SDS011;31430;61.646;24.704;2022-08-04T07:21:57;3.20;;;3.00;;
45714;SDS011;31430;61.646;24.704;2022-08-04T07:24:30;3.22;;;3.03;;
45714;SDS011;31430;61.646;24.704;2022-08-04T07:26:56;3.17;;;2.97;;
45714;SDS011;31430;61.646;24.704;2022-08-04T07:31:48;3.50;;;3.20;;
45714;SDS011;31430;61.646;24.704;2022-08-04T07:34:15;3.53;;;3.22;;
45714;SDS011;31430;61.646;24.704;2022-08-04T07:36:41;3.53;;;3.22;;
45714;SDS011;31430;61.646;24.704;2022-08-04T07:39:07;3.38;;;3.13;;
45714;SDS011;31430;61.646;24.704;2022-08-04T07:41:33;3.53;;;3.22;;
45714;SDS011;31430;61.646;24.704;2022-08-04T07:46:25;3.50;;;3.20;;
45714;SDS011;31430;61.646;24.704;2022-08-04T07:48:51;3.47;;;3.17;;
45714;SDS011;31430;61.646;24.704;2022-08-04T07:51:18;3.45;;;3.15;;
45714;SDS011;31430;61.646;24.704;2022-08-04T07:53:44;3.63;;;3.33;;
45714;SDS011;31430;61.646;24.704;2022-08-04T07:56:11;3.40;;;3.13;;
45714;SDS011;31430;61.646;24.704;2022-08-04T07:58:39;3.30;;;3.10;;
45714;SDS011;31430;61.646;24.704;2022-08-04T08:01:04;3.33;;;3.10;;
45714;SDS011;31430;61.646;24.704;2022-08-04T08:05:56;3.65;;;3.35;;
45714;SDS011;31430;61.646;24.704;2022-08-04T08:08:22;3.53;;;3.22;;
45714;SDS011;31430;61.646;24.704;2022-08-04T08:10:48;3.50;;;3.20;;
45714;SDS011;31430;61.646;24.704;2022-08-04T08:13:14;3.35;;;3.10;;
45714;SDS011;31430;61.646;24.704;2022-08-04T08:15:43;3.30;;;3.08;;
45714;SDS011;31430;61.646;24.704;2022-08-04T08:18:10;3.47;;;3.17;;
45714;SDS011;31430;61.646;24.704;2022-08-04T08:20:35;3.60;;;3.30;;
45714;SDS011;31430;61.646;24.704;2022-08-04T08:23:01;3.40;;;3.15;;
45714;SDS011;31430;61.646;24.704;2022-08-04T08:25:28;3.45;;;3.15;;
45714;SDS011;31430;61.646;24.704;2022-08-04T08:27:56;3.17;;;2.97;;
45714;SDS011;31430;61.646;24.704;2022-08-04T08:30:22;3.38;;;3.10;;
45714;SDS011;31430;61.646;24.704;2022-08-04T08:32:49;3.28;;;3.05;;
45714;SDS011;31430;61.646;24.704;2022-08-04T08:37:44;3.55;;;3.25;;
45714;SDS011;31430;61.646;24.704;2022-08-04T08:42:59;3.20;;;3.00;;
45714;SDS011;31430;61.646;24.704;2022-08-04T08:59:32;3.17;;;2.97;;
45714;SDS011;31430;61.646;24.704;2022-08-04T09:11:04;3.20;;;3.00;;
45714;SDS011;31430;61.646;24.704;2022-08-04T09:16:28;3.30;;;3.08;;
45714;SDS011;31430;61.646;24.704;2022-08-04T09:22:08;3.17;;;2.97;;
45714;SDS011;31430;61.646;24.704;2022-08-04T09:27:19;3.03;;;2.83;;
45714;SDS011;31430;61.646;24.704;2022-08-04T09:32:45;2.97;;;2.78;;
45714;SDS011;31430;61.646;24.704;2022-08-04T09:41:12;2.97;;;2.78;;
45714;SDS011;31430;61.646;24.704;2022-08-04T09:49:13;2.97;;;2.78;;
45714;SDS011;31430;61.646;24.704;2022-08-04T09:52:02;2.97;;;2.78;;
45714;SDS011;31430;61.646;24.704;2022-08-04T10:02:25;2.80;;;2.60;;
45714;SDS011;31430;61.646;24.704;2022-08-04T10:04:54;3.03;;;2.83;;
45714;SDS011;31430;61.646;24.704;2022-08-04T10:10:09;2.83;;;2.63;;
45714;SDS011;31430;61.646;24.704;2022-08-04T10:18:01;2.97;;;2.78;;
45714;SDS011;31430;61.646;24.704;2022-08-04T10:28:11;2.80;;;2.60;;
45714;SDS011;31430;61.646;24.704;2022-08-04T10:30:41;3.00;;;2.80;;
45714;SDS011;31430;61.646;24.704;2022-08-04T10:33:22;2.88;;;2.67;;
45714;SDS011;31430;61.646;24.704;2022-08-04T10:35:58;2.90;;;2.70;;
45714;SDS011;31430;61.646;24.704;2022-08-04T10:46:07;3.15;;;2.95;;
45714;SDS011;31430;61.646;24.704;2022-08-04T10:51:29;2.80;;;2.60;;
45714;SDS011;31430;61.646;24.704;2022-08-04T10:54:02;2.75;;;2.55;;
45714;SDS011;31430;61.646;24.704;2022-08-04T10:56:37;2.60;;;2.40;;
45714;SDS011;31430;61.646;24.704;2022-08-04T10:59:20;2.60;;;2.40;;
45714;SDS011;31430;61.646;24.704;2022-08-04T11:01:54;2.80;;;2.60;;
45714;SDS011;31430;61.646;24.704;2022-08-04T11:04:40;2.65;;;2.45;;
45714;SDS011;31430;61.646;24.704;2022-08-04T11:07:08;2.97;;;2.78;;
45714;SDS011;31430;61.646;24.704;2022-08-04T11:09:36;2.85;;;2.65;;
45714;SDS011;31430;61.646;24.704;2022-08-04T11:12:06;2.70;;;2.50;;
45714;SDS011;31430;61.646;24.704;2022-08-04T11:14:36;2.80;;;2.60;;
45714;SDS011;31430;61.646;24.704;2022-08-04T11:17:21;2.90;;;2.70;;
45714;SDS011;31430;61.646;24.704;2022-08-04T11:20:11;2.75;;;2.55;;
45714;SDS011;31430;61.646;24.704;2022-08-04T11:22:49;2.85;;;2.65;;
45714;SDS011;31430;61.646;24.704;2022-08-04T11:25:27;2.88;;;2.67;;
45714;SDS011;31430;61.646;24.704;2022-08-04T11:30:55;2.88;;;2.67;;
45714;SDS011;31430;61.646;24.704;2022-08-04T11:39:02;2.88;;;2.67;;
45714;SDS011;31430;61.646;24.704;2022-08-04T11:41:39;2.75;;;2.55;;
45714;SDS011;31430;61.646;24.704;2022-08-04T11:44:27;2.72;;;2.53;;
45714;SDS011;31430;61.646;24.704;2022-08-04T11:47:35;2.75;;;2.55;;
45714;SDS011;31430;61.646;24.704;2022-08-04T11:50:17;2.60;;;2.40;;
45714;SDS011;31430;61.646;24.704;2022-08-04T11:52:47;2.80;;;2.60;;
45714;SDS011;31430;61.646;24.704;2022-08-04T11:55:17;2.65;;;2.45;;
45714;SDS011;31430;61.646;24.704;2022-08-04T11:57:45;2.70;;;2.50;;
45714;SDS011;31430;61.646;24.704;2022-08-04T12:00:12;2.67;;;2.47;;
45714;SDS011;31430;61.646;24.704;2022-08-04T12:05:29;2.78;;;2.58;;
45714;SDS011;31430;61.646;24.704;2022-08-04T12:14:12;2.88;;;2.67;;
45714;SDS011;31430;61.646;24.704;2022-08-04T12:16:44;2.83;;;2.63;;
45714;SDS011;31430;61.646;24.704;2022-08-04T12:19:20;2.85;;;2.65;;
45714;SDS011;31430;61.646;24.704;2022-08-04T12:21:52;2.92;;;2.72;;
45714;SDS011;31430;61.646;24.704;2022-08-04T12:24:20;2.85;;;2.65;;
45714;SDS011;31430;61.646;24.704;2022-08-04T12:26:58;2.78;;;2.58;;
45714;SDS011;31430;61.646;24.704;2022-08-04T12:29:45;2.80;;;2.60;;
45714;SDS011;31430;61.646;24.704;2022-08-04T12:35:24;2.70;;;2.50;;
45714;SDS011;31430;61.646;24.704;2022-08-04T12:38:13;2.90;;;2.70;;
45714;SDS011;31430;61.646;24.704;2022-08-04T12:43:23;2.80;;;2.60;;
45714;SDS011;31430;61.646;24.704;2022-08-04T12:45:55;2.72;;;2.53;;
45714;SDS011;31430;61.646;24.704;2022-08-04T12:48:26;2.85;;;2.65;;
45714;SDS011;31430;61.646;24.704;2022-08-04T12:50:53;2.83;;;2.63;;
45714;SDS011;31430;61.646;24.704;2022-08-04T12:53:21;2.75;;;2.55;;
45714;SDS011;31430;61.646;24.704;2022-08-04T12:55:51;2.70;;;2.50;;
45714;SDS011;31430;61.646;24.704;2022-08-04T12:58:19;2.80;;;2.60;;
45714;SDS011;31430;61.646;24.704;2022-08-04T13:00:52;2.97;;;2.78;;
45714;SDS011;31430;61.646;24.704;2022-08-04T13:03:21;2.72;;;2.53;;
45714;SDS011;31430;61.646;24.704;2022-08-04T13:05:54;2.72;;;2.53;;
45714;SDS011;31430;61.646;24.704;2022-08-04T13:08:21;2.75;;;2.55;;
45714;SDS011;31430;61.646;24.704;2022-08-04T13:10:48;2.70;;;2.50;;
45714;SDS011;31430;61.646;24.704;2022-08-04T13:13:18;2.80;;;2.60;;
45714;SDS011;31430;61.646;24.704;2022-08-04T13:18:44;2.75;;;2.55;;
45714;SDS011;31430;61.646;24.704;2022-08-04T13:23:42;2.85;;;2.65;;
45714;SDS011;31430;61.646;24.704;2022-08-04T13:26:11;2.65;;;2.45;;
45714;SDS011;31430;61.646;24.704;2022-08-04T13:28:45;2.72;;;2.53;;
45714;SDS011;31430;61.646;24.704;2022-08-04T13:31:22;2.60;;;2.40;;
45714;SDS011;31430;61.646;24.704;2022-08-04T13:33:51;2.70;;;2.50;;
45714;SDS011;31430;61.646;24.704;2022-08-04T13:36:18;2.65;;;2.45;;
45714;SDS011;31430;61.646;24.704;2022-08-04T13:38:51;2.67;;;2.47;;
45714;SDS011;31430;61.646;24.704;2022-08-04T13:41:19;2.63;;;2.42;;
45714;SDS011;31430;61.646;24.704;2022-08-04T13:43:47;2.67;;;2.47;;
45714;SDS011;31430;61.646;24.704;2022-08-04T13:46:17;2.58;;;2.38;;
45714;SDS011;31430;61.646;24.704;2022-08-04T13:48:46;2.53;;;2.33;;
45714;SDS011;31430;61.646;24.704;2022-08-04T13:51:14;2.53;;;2.33;;
45714;SDS011;31430;61.646;24.704;2022-08-04T13:53:42;2.53;;;2.33;;
45714;SDS011;31430;61.646;24.704;2022-08-04T13:58:38;2.72;;;2.53;;
45714;SDS011;31430;61.646;24.704;2022-08-04T14:01:09;2.55;;;2.35;;
45714;SDS011;31430;61.646;24.704;2022-08-04T14:04:08;2.63;;;2.42;;
45714;SDS011;31430;61.646;24.704;2022-08-04T14:09:23;2.50;;;2.30;;
45714;SDS011;31430;61.646;24.704;2022-08-04T14:11:52;2.60;;;2.40;;
45714;SDS011;31430;61.646;24.704;2022-08-04T14:14:27;2.70;;;2.50;;
45714;SDS011;31430;61.646;24.704;2022-08-04T14:24:59;2.72;;;2.53;;
45714;SDS011;31430;61.646;24.704;2022-08-04T14:27:27;2.63;;;2.42;;
45714;SDS011;31430;61.646;24.704;2022-08-04T14:29:53;2.53;;;2.33;;
45714;SDS011;31430;61.646;24.704;2022-08-04T14:34:44;2.80;;;2.60;;
45714;SDS011;31430;61.646;24.704;2022-08-04T14:39:40;2.72;;;2.53;;
45714;SDS011;31430;61.646;24.704;2022-08-04T14:42:07;2.60;;;2.40;;
45714;SDS011;31430;61.646;24.704;2022-08-04T14:47:17;2.70;;;2.50;;
45714;SDS011;31430;61.646;24.704;2022-08-04T14:49:53;2.67;;;2.47;;
45714;SDS011;31430;61.646;24.704;2022-08-04T14:52:23;2.50;;;2.30;;
45714;SDS011;31430;61.646;24.704;2022-08-04T14:54:49;2.70;;;2.50;;
45714;SDS011;31430;61.646;24.704;2022-08-04T14:59:47;2.70;;;2.50;;
45714;SDS011;31430;61.646;24.704;2022-08-04T15:02:14;2.65;;;2.45;;
45714;SDS011;31430;61.646;24.704;2022-08-04T15:04:41;2.63;;;2.42;;
45714;SDS011;31430;61.646;24.704;2022-08-04T15:07:08;2.70;;;2.50;;
45714;SDS011;31430;61.646;24.704;2022-08-04T15:09:34;2.72;;;2.53;;
45714;SDS011;31430;61.646;24.704;2022-08-04T15:14:26;2.80;;;2.60;;
45714;SDS011;31430;61.646;24.704;2022-08-04T15:16:53;2.63;;;2.42;;
45714;SDS011;31430;61.646;24.704;2022-08-04T15:19:18;2.80;;;2.60;;
45714;SDS011;31430;61.646;24.704;2022-08-04T15:21:44;2.67;;;2.47;;
45714;SDS011;31430;61.646;24.704;2022-08-04T15:24:10;2.63;;;2.42;;
45714;SDS011;31430;61.646;24.704;2022-08-04T15:29:27;2.67;;;2.47;;
45714;SDS011;31430;61.646;24.704;2022-08-04T15:32:10;2.65;;;2.45;;
45714;SDS011;31430;61.646;24.704;2022-08-04T15:34:44;2.65;;;2.45;;
45714;SDS011;31430;61.646;24.704;2022-08-04T15:37:11;2.60;;;2.40;;
45714;SDS011;31430;61.646;24.704;2022-08-04T15:39:43;2.70;;;2.50;;
45714;SDS011;31430;61.646;24.704;2022-08-04T15:42:22;2.78;;;2.58;;
45714;SDS011;31430;61.646;24.704;2022-08-04T15:47:36;2.92;;;2.72;;
45714;SDS011;31430;61.646;24.704;2022-08-04T15:50:09;2.60;;;2.40;;
45714;SDS011;31430;61.646;24.704;2022-08-04T15:58:05;2.70;;;2.50;;
45714;SDS011;31430;61.646;24.704;2022-08-04T16:16:30;2.80;;;2.60;;
45714;SDS011;31430;61.646;24.704;2022-08-04T16:21:55;2.72;;;2.53;;
45714;SDS011;31430;61.646;24.704;2022-08-04T16:24:39;2.70;;;2.50;;
45714;SDS011;31430;61.646;24.704;2022-08-04T16:27:06;2.75;;;2.55;;
45714;SDS011;31430;61.646;24.704;2022-08-04T16:29:38;2.70;;;2.50;;
45714;SDS011;31430;61.646;24.704;2022-08-04T16:37:35;2.75;;;2.55;;
45714;SDS011;31430;61.646;24.704;2022-08-04T16:42:52;2.78;;;2.58;;
45714;SDS011;31430;61.646;24.704;2022-08-04T16:45:21;2.70;;;2.50;;
45714;SDS011;31430;61.646;24.704;2022-08-04T16:48:05;2.75;;;2.55;;
45714;SDS011;31430;61.646;24.704;2022-08-04T16:50:32;2.75;;;2.55;;
45714;SDS011;31430;61.646;24.704;2022-08-04T16:53:10;2.80;;;2.60;;
45714;SDS011;31430;61.646;24.704;2022-08-04T16:55:37;2.78;;;2.58;;
45714;SDS011;31430;61.646;24.704;2022-08-04T16:58:03;2.85;;;2.65;;
45714;SDS011;31430;61.646;24.704;2022-08-04T17:00:33;2.78;;;2.58;;
45714;SDS011;31430;61.646;24.704;2022-08-04T17:03:01;2.70;;;2.50;;
45714;SDS011;31430;61.646;24.704;2022-08-04T17:05:31;2.70;;;2.50;;
45714;SDS011;31430;61.646;24.704;2022-08-04T17:07:58;2.63;;;2.42;;
45714;SDS011;31430;61.646;24.704;2022-08-04T17:10:29;2.70;;;2.50;;
45714;SDS011;31430;61.646;24.704;2022-08-04T17:12:58;2.85;;;2.65;;
45714;SDS011;31430;61.646;24.704;2022-08-04T17:15:25;2.70;;;2.50;;
45714;SDS011;31430;61.646;24.704;2022-08-04T17:17:51;2.70;;;2.50;;
45714;SDS011;31430;61.646;24.704;2022-08-04T17:20:17;2.90;;;2.70;;
45714;SDS011;31430;61.646;24.704;2022-08-04T17:22:50;2.80;;;2.60;;
45714;SDS011;31430;61.646;24.704;2022-08-04T17:25:16;2.83;;;2.63;;
45714;SDS011;31430;61.646;24.704;2022-08-04T17:27:41;2.83;;;2.63;;
45714;SDS011;31430;61.646;24.704;2022-08-04T17:30:24;2.80;;;2.60;;
45714;SDS011;31430;61.646;24.704;2022-08-04T17:32:50;2.80;;;2.60;;
45714;SDS011;31430;61.646;24.704;2022-08-04T17:35:16;2.85;;;2.65;;
45714;SDS011;31430;61.646;24.704;2022-08-04T17:37:42;2.80;;;2.60;;
45714;SDS011;31430;61.646;24.704;2022-08-04T17:40:12;2.75;;;2.55;;
45714;SDS011;31430;61.646;24.704;2022-08-04T17:42:39;2.78;;;2.58;;
45714;SDS011;31430;61.646;24.704;2022-08-04T17:45:06;2.90;;;2.70;;
45714;SDS011;31430;61.646;24.704;2022-08-04T17:47:51;2.90;;;2.70;;
45714;SDS011;31430;61.646;24.704;2022-08-04T17:50:24;2.80;;;2.60;;
45714;SDS011;31430;61.646;24.704;2022-08-04T17:52:57;2.85;;;2.65;;
45714;SDS011;31430;61.646;24.704;2022-08-04T17:58:19;2.88;;;2.67;;
45714;SDS011;31430;61.646;24.704;2022-08-04T18:03:35;3.20;;;3.00;;
45714;SDS011;31430;61.646;24.704;2022-08-04T18:06:10;3.08;;;2.88;;
45714;SDS011;31430;61.646;24.704;2022-08-04T18:08:36;2.92;;;2.72;;
45714;SDS011;31430;61.646;24.704;2022-08-04T18:11:02;2.90;;;2.70;;
45714;SDS011;31430;61.646;24.704;2022-08-04T18:13:28;3.00;;;2.80;;
45714;SDS011;31430;61.646;24.704;2022-08-04T18:16:03;3.10;;;2.90;;
45714;SDS011;31430;61.646;24.704;2022-08-04T18:18:29;3.00;;;2.80;;
45714;SDS011;31430;61.646;24.704;2022-08-04T18:20:55;3.10;;;2.90;;
45714;SDS011;31430;61.646;24.704;2022-08-04T18:23:21;3.05;;;2.85;;
45714;SDS011;31430;61.646;24.704;2022-08-04T18:25:47;2.97;;;2.78;;
45714;SDS011;31430;61.646;24.704;2022-08-04T18:28:13;3.15;;;2.95;;
45714;SDS011;31430;61.646;24.704;2022-08-04T18:30:39;3.00;;;2.80;;
45714;SDS011;31430;61.646;24.704;2022-08-04T18:35:33;3.25;;;3.03;;
45714;SDS011;31430;61.646;24.704;2022-08-04T18:38:00;3.10;;;2.90;;
45714;SDS011;31430;61.646;24.704;2022-08-04T18:40:27;3.03;;;2.83;;
45714;SDS011;31430;61.646;24.704;2022-08-04T18:42:52;3.05;;;2.85;;
45714;SDS011;31430;61.646;24.704;2022-08-04T18:45:18;3.20;;;3.00;;
45714;SDS011;31430;61.646;24.704;2022-08-04T18:47:44;2.90;;;2.70;;
45714;SDS011;31430;61.646;24.704;2022-08-04T18:50:10;3.13;;;2.92;;
45714;SDS011;31430;61.646;24.704;2022-08-04T18:52:35;3.17;;;2.97;;
45714;SDS011;31430;61.646;24.704;2022-08-04T18:55:01;3.05;;;2.85;;
45714;SDS011;31430;61.646;24.704;2022-08-04T18:59:54;3.20;;;3.00;;
45714;SDS011;31430;61.646;24.704;2022-08-04T19:02:21;3.08;;;2.88;;
45714;SDS011;31430;61.646;24.704;2022-08-04T19:07:13;3.50;;;3.20;;
45714;SDS011;31430;61.646;24.704;2022-08-04T19:12:05;3.15;;;2.95;;
45714;SDS011;31430;61.646;24.704;2022-08-04T19:14:31;3.13;;;2.92;;
45714;SDS011;31430;61.646;24.704;2022-08-04T19:16:56;3.05;;;2.85;;
45714;SDS011;31430;61.646;24.704;2022-08-04T19:19:22;3.20;;;3.00;;
45714;SDS011;31430;61.646;24.704;2022-08-04T19:21:48;3.20;;;3.00;;
45714;SDS011;31430;61.646;24.704;2022-08-04T19:24:14;3.13;;;2.92;;
45714;SDS011;31430;61.646;24.704;2022-08-04T19:26:40;3.20;;;3.00;;
45714;SDS011;31430;61.646;24.704;2022-08-04T19:29:05;3.38;;;3.13;;
45714;SDS011;31430;61.646;24.704;2022-08-04T19:31:31;3.22;;;3.03;;
45714;SDS011;31430;61.646;24.704;2022-08-04T19:33:57;3.17;;;2.97;;
45714;SDS011;31430;61.646;24.704;2022-08-04T19:36:23;3.22;;;3.03;;
45714;SDS011;31430;61.646;24.704;2022-08-04T19:38:51;3.08;;;2.88;;
45714;SDS011;31430;61.646;24.704;2022-08-04T19:41:17;3.35;;;3.10;;
45714;SDS011;31430;61.646;24.704;2022-08-04T19:43:43;3.13;;;2.92;;
45714;SDS011;31430;61.646;24.704;2022-08-04T19:46:10;3.72;;;3.42;;
45714;SDS011;31430;61.646;24.704;2022-08-04T19:48:36;3.13;;;2.92;;
45714;SDS011;31430;61.646;24.704;2022-08-04T19:51:02;3.20;;;3.00;;
45714;SDS011;31430;61.646;24.704;2022-08-04T19:53:27;3.33;;;3.08;;
45714;SDS011;31430;61.646;24.704;2022-08-04T19:55:53;3.25;;;3.05;;
45714;SDS011;31430;61.646;24.704;2022-08-04T19:58:19;3.22;;;3.03;;
45714;SDS011;31430;61.646;24.704;2022-08-04T20:00:44;3.50;;;3.20;;
45714;SDS011;31430;61.646;24.704;2022-08-04T20:03:10;3.33;;;3.10;;
45714;SDS011;31430;61.646;24.704;2022-08-04T20:05:38;3.42;;;3.13;;
45714;SDS011;31430;61.646;24.704;2022-08-04T20:08:05;3.75;;;3.45;;
45714;SDS011;31430;61.646;24.704;2022-08-04T20:10:30;3.22;;;3.03;;
45714;SDS011;31430;61.646;24.704;2022-08-04T20:12:56;3.15;;;2.95;;
45714;SDS011;31430;61.646;24.704;2022-08-04T20:15:22;3.50;;;3.20;;
45714;SDS011;31430;61.646;24.704;2022-08-04T20:17:47;3.20;;;3.00;;
45714;SDS011;31430;61.646;24.704;2022-08-04T20:20:13;3.65;;;3.35;;
45714;SDS011;31430;61.646;24.704;2022-08-04T20:22:39;3.20;;;3.00;;
45714;SDS011;31430;61.646;24.704;2022-08-04T20:25:04;3.22;;;3.03;;
45714;SDS011;31430;61.646;24.704;2022-08-04T20:27:30;3.30;;;3.08;;
45714;SDS011;31430;61.646;24.704;2022-08-04T20:29:56;3.22;;;3.03;;
45714;SDS011;31430;61.646;24.704;2022-08-04T20:32:23;3.55;;;3.25;;
45714;SDS011;31430;61.646;24.704;2022-08-04T20:34:51;3.50;;;3.20;;
45714;SDS011;31430;61.646;24.704;2022-08-04T20:37:18;3.33;;;3.10;;
45714;SDS011;31430;61.646;24.704;2022-08-04T20:39:46;3.47;;;3.17;;
45714;SDS011;31430;61.646;24.704;2022-08-04T20:42:16;3.70;;;3.40;;
45714;SDS011;31430;61.646;24.704;2022-08-04T20:44:41;3.20;;;3.00;;
45714;SDS011;31430;61.646;24.704;2022-08-04T20:47:07;3.60;;;3.30;;
45714;SDS011;31430;61.646;24.704;2022-08-04T20:49:33;3.60;;;3.30;;
45714;SDS011;31430;61.646;24.704;2022-08-04T20:51:58;3.47;;;3.17;;
45714;SDS011;31430;61.646;24.704;2022-08-04T20:54:26;3.60;;;3.30;;
45714;SDS011;31430;61.646;24.704;2022-08-04T20:56:51;3.38;;;3.10;;
45714;SDS011;31430;61.646;24.704;2022-08-04T20:59:18;3.38;;;3.13;;
45714;SDS011;31430;61.646;24.704;2022-08-04T21:04:09;3.85;;;3.55;;
45714;SDS011;31430;61.646;24.704;2022-08-04T21:06:53;3.47;;;3.17;;